createdAt,value
2019-05-02T00:02:11.435Z,16.50
2019-05-02T00:04:38.299Z,14.83
2019-05-02T00:07:07.280Z,12.98
2019-05-02T00:09:35.647Z,14.83
2019-05-02T00:12:06.796Z,12.95
2019-05-02T00:14:34.981Z,13.13
2019-05-02T00:17:02.193Z,11.20
2019-05-02T00:19:29.515Z,13.13
2019-05-02T00:21:56.809Z,15.72
2019-05-02T00:24:23.793Z,11.25
2019-05-02T00:26:50.757Z,11.45
2019-05-02T00:29:19.026Z,11.38
2019-05-02T00:31:48.810Z,12.23
2019-05-02T00:34:15.789Z,14.93
2019-05-02T00:36:43.064Z,14.07
2019-05-02T00:39:13.724Z,11.12
2019-05-02T00:41:40.442Z,14.20
2019-05-02T00:44:10.957Z,14.87
2019-05-02T00:46:37.176Z,13.40
2019-05-02T00:49:04.448Z,12.73
2019-05-02T00:51:31.598Z,15.98
2019-05-02T00:53:58.762Z,14.58
2019-05-02T00:56:25.541Z,11.28
2019-05-02T00:58:52.689Z,10.58
2019-05-02T01:01:29.628Z,14.03
2019-05-02T01:03:59.270Z,11.60
2019-05-02T01:06:26.486Z,15.05
2019-05-02T01:08:53.284Z,12.50
2019-05-02T01:11:20.250Z,11.90
2019-05-02T01:13:50.276Z,14.13
2019-05-02T01:16:19.120Z,13.32
2019-05-02T01:18:44.669Z,15.43
2019-05-02T01:21:11.467Z,13.32
2019-05-02T01:23:38.352Z,10.32
2019-05-02T01:26:07.116Z,12.65
2019-05-02T01:28:55.612Z,14.90
2019-05-02T01:31:36.591Z,14.70
2019-05-02T01:34:17.958Z,12.28
2019-05-02T01:36:49.673Z,10.60
2019-05-02T01:39:17.033Z,11.80
2019-05-02T01:41:43.905Z,11.25
2019-05-02T01:44:10.780Z,11.40
2019-05-02T01:46:37.628Z,11.35
2019-05-02T01:49:04.781Z,11.90
2019-05-02T01:51:31.513Z,14.65
2019-05-02T01:53:59.148Z,11.40
2019-05-02T01:56:28.443Z,13.15
2019-05-02T01:58:57.763Z,11.65
2019-05-02T02:01:23.863Z,15.63
2019-05-02T02:03:50.744Z,13.68
2019-05-02T02:06:17.622Z,14.63
2019-05-02T02:08:45.030Z,12.18
2019-05-02T02:11:11.765Z,11.10
2019-05-02T02:13:38.849Z,11.53
2019-05-02T02:16:06.168Z,11.25
2019-05-02T02:18:35.099Z,11.25
2019-05-02T02:21:14.972Z,12.58
2019-05-02T02:23:49.739Z,13.05
2019-05-02T02:26:18.756Z,11.78
2019-05-02T02:28:45.638Z,12.43
2019-05-02T02:31:12.628Z,12.40
2019-05-02T02:33:40.806Z,12.30
2019-05-02T02:36:09.040Z,13.90
2019-05-02T02:38:36.458Z,15.10
2019-05-02T02:41:06.392Z,10.72
2019-05-02T02:43:34.740Z,13.48
2019-05-02T02:46:01.705Z,10.50
2019-05-02T02:48:33.614Z,11.95
2019-05-02T02:50:58.976Z,12.60
2019-05-02T02:53:31.424Z,10.58
2019-05-02T02:56:05.987Z,12.90
2019-05-02T02:58:44.558Z,12.58
2019-05-02T03:01:02.133Z,13.40
2019-05-02T03:03:31.381Z,13.00
2019-05-02T03:06:05.242Z,13.78
2019-05-02T03:08:27.337Z,13.53
2019-05-02T03:10:54.408Z,11.97
2019-05-02T03:13:24.363Z,15.28
2019-05-02T03:16:00.463Z,11.53
2019-05-02T03:18:26.938Z,10.90
2019-05-02T03:20:52.658Z,12.15
2019-05-02T03:23:22.163Z,13.70
2019-05-02T03:25:51.171Z,12.93
2019-05-02T03:28:20.355Z,15.72
2019-05-02T03:30:46.404Z,11.40
2019-05-02T03:33:13.158Z,12.05
2019-05-02T03:35:44.130Z,12.50
2019-05-02T03:38:09.450Z,14.07
2019-05-02T03:40:38.871Z,12.47
2019-05-02T03:43:06.440Z,13.70
2019-05-02T03:45:39.804Z,12.93
2019-05-02T03:48:02.197Z,14.03
2019-05-02T03:50:32.746Z,12.40
2019-05-02T03:52:59.233Z,16.35
2019-05-02T03:55:30.896Z,12.30
2019-05-02T03:57:55.934Z,11.68
2019-05-02T04:00:24.416Z,14.65
2019-05-02T04:02:59.588Z,15.93
2019-05-02T04:05:20.385Z,12.13
2019-05-02T04:07:47.560Z,13.48
2019-05-02T04:10:46.273Z,15.05
2019-05-02T04:13:13.817Z,12.13
2019-05-02T04:15:42.820Z,14.75
2019-05-02T04:18:15.569Z,14.40
2019-05-02T04:20:43.537Z,14.18
2019-05-02T04:23:11.530Z,14.45
2019-05-02T04:25:39.034Z,14.00
2019-05-02T04:28:11.488Z,15.00
2019-05-02T04:30:34.469Z,13.50
2019-05-02T04:33:01.355Z,12.00
2019-05-02T04:35:28.716Z,12.15
2019-05-02T04:37:59.113Z,15.08
2019-05-02T04:40:28.189Z,11.33
2019-05-02T04:43:05.498Z,13.50
2019-05-02T04:45:29.384Z,14.20
2019-05-02T04:47:58.999Z,18.85
2019-05-02T04:50:25.315Z,13.10
2019-05-02T04:52:53.728Z,15.28
2019-05-02T04:55:26.214Z,13.85
2019-05-02T04:57:50.594Z,11.63
2019-05-02T05:00:20.957Z,12.37
2019-05-02T05:02:48.391Z,11.65
2019-05-02T05:05:25.019Z,13.78
2019-05-02T05:07:46.515Z,15.03
2019-05-02T05:10:14.476Z,16.93
2019-05-02T05:12:42.010Z,11.83
2019-05-02T05:15:15.144Z,14.40
2019-05-02T05:17:38.070Z,16.27
2019-05-02T05:20:12.210Z,13.35
2019-05-02T05:22:36.598Z,12.98
2019-05-02T05:25:21.360Z,15.28
2019-05-02T05:27:52.556Z,16.40
2019-05-02T05:30:18.754Z,13.98
2019-05-02T05:32:47.785Z,15.25
2019-05-02T05:35:15.154Z,12.65
2019-05-02T05:37:43.268Z,12.78
2019-05-02T05:40:11.238Z,12.45
2019-05-02T05:42:38.122Z,13.40
2019-05-02T05:45:09.693Z,12.73
2019-05-02T05:47:37.722Z,16.17
2019-05-02T05:50:05.676Z,13.20
2019-05-02T05:52:33.110Z,13.93
2019-05-02T05:55:01.107Z,12.43
2019-05-02T05:57:28.048Z,12.55
2019-05-02T05:59:58.425Z,11.38
2019-05-02T06:02:25.448Z,13.38
2019-05-02T06:04:55.343Z,15.28
2019-05-02T06:07:21.426Z,15.25
2019-05-02T06:09:48.155Z,14.68
2019-05-02T06:12:15.040Z,15.40
2019-05-02T06:14:41.890Z,14.60
2019-05-02T06:17:09.428Z,14.55
2019-05-02T06:19:37.151Z,13.78
2019-05-02T06:22:04.668Z,14.30
2019-05-02T06:24:33.834Z,14.13
2019-05-02T06:27:00.431Z,14.43
2019-05-02T06:29:27.321Z,12.98
2019-05-02T06:31:59.457Z,15.03
2019-05-02T06:34:26.229Z,13.47
2019-05-02T06:36:53.097Z,17.70
2019-05-02T06:39:19.879Z,14.87
2019-05-02T06:41:46.750Z,15.40
2019-05-02T06:44:18.475Z,15.25
2019-05-02T06:46:42.808Z,14.45
2019-05-02T06:49:09.694Z,14.25
2019-05-02T06:51:38.231Z,14.53
2019-05-02T06:54:05.545Z,12.30
2019-05-02T06:56:32.661Z,12.13
2019-05-02T06:59:01.755Z,15.20
2019-05-02T07:01:28.614Z,12.90
2019-05-02T07:03:55.595Z,13.53
2019-05-02T07:06:22.912Z,14.73
2019-05-02T07:08:50.184Z,12.70
2019-05-02T07:11:18.123Z,13.80
2019-05-02T07:13:44.909Z,14.58
2019-05-02T07:16:30.361Z,12.90
2019-05-02T07:18:49.403Z,16.05
2019-05-02T07:21:17.317Z,12.13
2019-05-02T07:23:48.627Z,13.90
2019-05-02T07:26:15.414Z,14.38
2019-05-02T07:28:45.758Z,14.40
2019-05-02T07:31:13.857Z,15.08
2019-05-02T07:33:40.870Z,17.05
2019-05-02T07:36:07.823Z,14.85
2019-05-02T07:38:34.726Z,14.00
2019-05-02T07:41:01.587Z,14.95
2019-05-02T07:43:28.560Z,12.90
2019-05-02T07:45:55.803Z,13.70
2019-05-02T07:48:22.569Z,14.03
2019-05-02T07:50:49.893Z,15.63
2019-05-02T07:53:17.227Z,12.00
2019-05-02T07:55:44.217Z,14.53
2019-05-02T07:58:11.027Z,12.60
2019-05-02T08:00:38.502Z,15.05
2019-05-02T08:03:05.589Z,12.65
2019-05-02T08:05:32.785Z,13.50
2019-05-02T08:07:59.919Z,17.48
2019-05-02T08:10:27.180Z,18.35
2019-05-02T08:12:54.560Z,16.10
2019-05-02T08:15:24.301Z,11.60
2019-05-02T08:17:53.807Z,12.05
2019-05-02T08:20:19.810Z,13.90
2019-05-02T08:22:48.924Z,13.18
2019-05-02T08:25:16.922Z,12.25
2019-05-02T08:27:51.771Z,11.40
2019-05-02T08:30:21.232Z,11.68
2019-05-02T08:32:48.401Z,14.50
2019-05-02T08:35:15.270Z,13.90
2019-05-02T08:37:43.106Z,12.78
2019-05-02T08:40:12.016Z,14.07
2019-05-02T08:42:39.068Z,17.50
2019-05-02T08:45:06.972Z,13.60
2019-05-02T08:47:33.899Z,14.60
2019-05-02T08:50:00.983Z,18.05
2019-05-02T08:52:27.883Z,13.35
2019-05-02T08:54:54.773Z,12.33
2019-05-02T08:57:23.855Z,14.35
2019-05-02T08:59:55.501Z,15.98
2019-05-02T09:02:21.202Z,17.50
2019-05-02T09:04:58.175Z,18.95
2019-05-02T09:07:18.288Z,19.10
2019-05-02T09:09:45.217Z,16.35
2019-05-02T09:12:15.080Z,17.87
2019-05-02T09:14:42.602Z,23.55
2019-05-02T09:17:15.847Z,20.40
2019-05-02T09:19:38.955Z,19.60
2019-05-02T09:22:07.516Z,17.70
2019-05-02T09:24:34.533Z,21.85
2019-05-02T09:27:02.479Z,18.25
2019-05-02T09:29:29.541Z,18.80
2019-05-02T09:31:56.445Z,20.10
2019-05-02T09:34:26.694Z,17.75
2019-05-02T09:36:53.040Z,19.35
2019-05-02T09:39:20.023Z,18.90
2019-05-02T09:41:46.840Z,19.48
2019-05-02T09:44:18.623Z,18.50
2019-05-02T09:46:47.348Z,21.82
2019-05-02T09:49:16.273Z,26.25
2019-05-02T09:51:45.596Z,18.77
2019-05-02T09:54:12.087Z,19.50
2019-05-02T09:56:39.043Z,20.15
2019-05-02T09:59:23.262Z,21.12
2019-05-02T10:01:36.926Z,18.90
2019-05-02T10:04:04.285Z,22.58
2019-05-02T10:06:33.703Z,21.52
2019-05-02T10:09:02.607Z,23.18
2019-05-02T10:11:29.708Z,17.20
2019-05-02T10:13:56.628Z,22.80
2019-05-02T10:16:27.343Z,20.52
2019-05-02T10:18:53.373Z,19.62
2019-05-02T10:21:22.656Z,21.27
2019-05-02T10:23:51.693Z,19.52
2019-05-02T10:26:20.269Z,19.57
2019-05-02T10:28:51.197Z,20.70
2019-05-02T10:31:19.366Z,17.32
2019-05-02T10:33:46.607Z,18.95
2019-05-02T10:36:19.688Z,18.35
2019-05-02T10:38:42.791Z,18.92
2019-05-02T10:41:11.877Z,18.40
2019-05-02T10:43:38.802Z,17.65
2019-05-02T10:46:07.478Z,19.07
2019-05-02T10:48:36.308Z,18.10
2019-05-02T10:51:25.608Z,22.22
2019-05-02T10:53:52.647Z,20.45
2019-05-02T10:56:19.787Z,18.07
2019-05-02T10:58:46.619Z,17.32
2019-05-02T11:01:16.110Z,15.93
2019-05-02T11:03:54.074Z,18.30
2019-05-02T11:06:22.251Z,17.52
2019-05-02T11:08:52.379Z,15.55
2019-05-02T11:11:21.740Z,17.52
2019-05-02T11:14:01.991Z,15.05
2019-05-02T11:16:34.149Z,16.17
2019-05-02T11:19:09.968Z,13.95
2019-05-02T11:21:37.154Z,13.93
2019-05-02T11:24:04.202Z,15.90
2019-05-02T11:26:32.418Z,15.13
2019-05-02T11:28:59.870Z,15.08
2019-05-02T11:31:26.822Z,17.82
2019-05-02T11:33:54.034Z,13.85
2019-05-02T11:36:22.323Z,13.65
2019-05-02T11:39:00.283Z,14.65
2019-05-02T11:41:19.780Z,14.28
2019-05-02T11:43:46.568Z,13.22
2019-05-02T11:46:13.714Z,14.03
2019-05-02T11:48:54.697Z,15.13
2019-05-02T11:51:14.842Z,17.52
2019-05-02T11:53:38.311Z,17.02
2019-05-02T11:56:07.451Z,15.48
2019-05-02T11:58:34.382Z,13.72
2019-05-02T12:01:05.055Z,14.93
2019-05-02T12:03:35.577Z,13.55
2019-05-02T12:05:59.234Z,19.52
2019-05-02T12:08:26.147Z,19.82
2019-05-02T12:10:53.027Z,19.80
2019-05-02T12:13:20.312Z,16.17
2019-05-02T12:15:47.387Z,15.05
2019-05-02T12:18:14.435Z,18.80
2019-05-02T12:20:42.510Z,15.15
2019-05-02T12:23:09.842Z,18.70
2019-05-02T12:25:36.747Z,16.82
2019-05-02T12:28:05.309Z,14.15
2019-05-02T12:30:34.130Z,16.80
2019-05-02T12:33:02.530Z,15.70
2019-05-02T12:35:32.106Z,16.87
2019-05-02T12:37:59.466Z,18.80
2019-05-02T12:40:26.717Z,18.12
2019-05-02T12:42:53.477Z,18.12
2019-05-02T12:45:21.923Z,15.50
2019-05-02T12:47:49.507Z,17.25
2019-05-02T12:50:16.555Z,13.18
2019-05-02T12:52:43.452Z,14.58
2019-05-02T12:55:12.789Z,15.28
2019-05-02T12:57:39.865Z,21.10
2019-05-02T13:00:08.060Z,18.75
2019-05-02T13:02:42.882Z,17.32
2019-05-02T13:05:10.312Z,13.55
2019-05-02T13:07:37.234Z,14.70
2019-05-02T13:10:06.209Z,19.32
2019-05-02T13:12:35.202Z,14.55
2019-05-02T13:15:04.899Z,13.62
2019-05-02T13:17:35.721Z,16.25
2019-05-02T13:20:03.816Z,18.15
2019-05-02T13:22:37.878Z,16.12
2019-05-02T13:25:10.317Z,17.25
2019-05-02T13:27:44.409Z,18.00
2019-05-02T13:30:12.399Z,22.45
2019-05-02T13:32:42.639Z,17.07
2019-05-02T13:35:12.861Z,23.40
2019-05-02T13:37:42.310Z,19.92
2019-05-02T13:40:12.204Z,19.87
2019-05-02T13:42:39.068Z,20.30
2019-05-02T13:45:08.583Z,18.20
2019-05-02T13:47:35.432Z,23.38
2019-05-02T13:50:04.894Z,18.45
2019-05-02T13:52:33.196Z,20.45
2019-05-02T13:55:01.807Z,20.48
2019-05-02T13:57:28.779Z,20.08
2019-05-02T13:59:55.762Z,21.57
2019-05-02T14:02:42.636Z,21.33
2019-05-02T14:05:13.827Z,18.42
2019-05-02T14:07:43.005Z,20.00
2019-05-02T14:10:25.287Z,18.23
2019-05-02T14:12:53.962Z,21.40
2019-05-02T14:15:22.484Z,20.25
2019-05-02T14:17:49.667Z,19.40
2019-05-02T14:20:18.499Z,17.15
2019-05-02T14:22:45.834Z,31.82
2019-05-02T14:25:13.095Z,42.73
2019-05-02T14:27:42.029Z,20.82
2019-05-02T14:30:09.634Z,19.65
2019-05-02T14:32:36.721Z,20.17
2019-05-02T14:35:07.855Z,18.42
2019-05-02T14:37:34.919Z,16.35
2019-05-02T14:40:08.418Z,16.75
2019-05-02T14:42:35.273Z,18.70
2019-05-02T14:45:13.311Z,18.60
2019-05-02T14:47:33.864Z,18.70
2019-05-02T14:50:02.208Z,17.87
2019-05-02T14:52:29.945Z,17.37
2019-05-02T14:54:56.717Z,12.47
2019-05-02T14:57:27.013Z,10.55
2019-05-02T14:59:59.062Z,9.20
2019-05-02T15:02:39.324Z,7.87
2019-05-02T15:05:05.684Z,12.33
2019-05-02T15:07:33.022Z,8.63
2019-05-02T15:10:05.046Z,7.28
2019-05-02T15:12:28.855Z,7.78
2019-05-02T15:14:58.657Z,8.15
2019-05-02T15:17:28.111Z,6.58
2019-05-02T15:19:53.244Z,6.50
2019-05-02T15:22:20.024Z,8.43
2019-05-02T15:24:46.767Z,10.25
2019-05-02T15:27:17.728Z,9.93
2019-05-02T15:29:42.619Z,10.35
2019-05-02T15:32:25.451Z,9.25
2019-05-02T15:35:02.496Z,7.35
2019-05-02T15:37:29.498Z,7.75
2019-05-02T15:42:25.882Z,14.80
2019-05-02T15:44:56.950Z,9.53
2019-05-02T15:47:22.509Z,8.15
2019-05-02T15:49:50.309Z,9.95
2019-05-02T15:52:24.268Z,10.05
2019-05-02T15:54:55.515Z,9.83
2019-05-02T15:57:22.077Z,10.05
2019-05-02T15:59:48.381Z,8.80
2019-05-02T16:02:21.897Z,11.15
2019-05-02T16:04:46.605Z,7.83
2019-05-02T16:07:14.030Z,7.47
2019-05-02T16:09:41.662Z,7.92
2019-05-02T16:12:08.790Z,9.88
2019-05-02T16:14:36.246Z,7.95
2019-05-02T16:17:03.912Z,8.45
2019-05-02T16:19:33.073Z,10.60
2019-05-02T16:22:06.676Z,9.35
2019-05-02T16:24:32.138Z,8.90
2019-05-02T16:26:58.999Z,13.95
2019-05-02T16:29:28.424Z,10.70
2019-05-02T16:31:59.819Z,10.58
2019-05-02T16:34:27.466Z,9.58
2019-05-02T16:36:57.592Z,16.10
2019-05-02T16:39:24.353Z,12.88
2019-05-02T16:41:52.953Z,14.43
2019-05-02T16:44:19.919Z,12.30
2019-05-02T16:46:47.119Z,12.10
2019-05-02T16:49:18.485Z,10.98
2019-05-02T16:51:43.292Z,12.35
2019-05-02T16:54:10.186Z,11.93
2019-05-02T16:56:42.363Z,12.37
2019-05-02T16:59:05.972Z,12.55
2019-05-02T17:01:32.794Z,11.50
2019-05-02T17:04:05.183Z,16.40
2019-05-02T17:06:29.817Z,13.72
2019-05-02T17:09:07.623Z,14.55
2019-05-02T17:11:36.421Z,13.60
2019-05-02T17:14:07.000Z,14.18
2019-05-02T17:16:32.420Z,13.55
2019-05-02T17:18:59.204Z,12.90
2019-05-02T17:21:26.764Z,14.73
2019-05-02T17:23:55.190Z,12.45
2019-05-02T17:26:22.795Z,15.50
2019-05-02T17:28:51.633Z,16.93
2019-05-02T17:31:20.645Z,15.00
2019-05-02T17:33:50.930Z,13.35
2019-05-02T17:36:21.522Z,13.08
2019-05-02T17:38:46.284Z,14.03
2019-05-02T17:41:13.349Z,13.95
2019-05-02T17:43:42.138Z,16.23
2019-05-02T17:46:12.672Z,18.92
2019-05-02T17:48:39.273Z,13.28
2019-05-02T17:51:08.455Z,12.80
2019-05-02T17:53:41.626Z,13.85
2019-05-02T17:56:04.427Z,13.72
2019-05-02T17:58:31.881Z,14.07
2019-05-02T18:01:02.580Z,16.97
2019-05-02T18:03:31.102Z,16.70
2019-05-02T18:05:58.674Z,13.50
2019-05-02T18:08:27.134Z,14.55
2019-05-02T18:10:58.094Z,14.75
2019-05-02T18:13:23.807Z,12.05
2019-05-02T18:15:53.570Z,16.37
2019-05-02T18:18:22.141Z,16.12
2019-05-02T18:20:49.128Z,13.78
2019-05-02T18:23:18.643Z,14.05
2019-05-02T18:25:45.263Z,18.70
2019-05-02T18:28:14.041Z,21.30
2019-05-02T18:30:41.741Z,18.40
2019-05-02T18:33:09.035Z,19.48
2019-05-02T18:35:37.496Z,20.65
2019-05-02T18:38:05.373Z,21.35
2019-05-02T18:40:32.436Z,24.27
2019-05-02T18:43:02.147Z,21.87
2019-05-02T18:45:29.159Z,25.37
2019-05-02T18:48:02.347Z,27.25
2019-05-02T18:50:36.979Z,27.75
2019-05-02T18:53:06.450Z,27.45
2019-05-02T18:55:33.954Z,26.00
2019-05-02T18:58:05.140Z,26.77
2019-05-02T19:00:36.109Z,26.35
2019-05-02T19:02:59.728Z,29.52
2019-05-02T19:05:26.700Z,28.25
2019-05-02T19:07:56.317Z,25.50
2019-05-02T19:10:23.180Z,27.15
2019-05-02T19:12:50.269Z,29.20
2019-05-02T19:15:18.360Z,28.10
2019-05-02T19:17:45.258Z,27.42
2019-05-02T19:20:29.297Z,26.10
2019-05-02T19:22:57.023Z,29.87
2019-05-02T19:25:24.483Z,31.73
2019-05-02T19:27:52.135Z,31.45
2019-05-02T19:30:26.407Z,27.85
2019-05-02T19:35:19.272Z,34.05
2019-05-02T19:37:47.887Z,31.93
2019-05-02T19:40:26.896Z,29.07
2019-05-02T19:42:49.410Z,30.88
2019-05-02T19:45:16.982Z,30.12
2019-05-02T19:47:44.150Z,31.65
2019-05-02T19:50:36.710Z,33.67
2019-05-02T19:53:04.165Z,33.78
2019-05-02T19:55:29.772Z,34.00
2019-05-02T19:58:01.364Z,33.18
2019-05-02T20:00:27.091Z,31.35
2019-05-02T20:02:54.282Z,33.15
2019-05-02T20:05:25.434Z,36.75
2019-05-02T20:07:52.017Z,34.38
2019-05-02T20:10:19.398Z,32.98
2019-05-02T20:12:48.741Z,31.37
2019-05-02T20:15:25.407Z,32.03
2019-05-02T20:17:46.520Z,32.65
2019-05-02T20:20:42.292Z,35.15
2019-05-02T20:23:17.848Z,33.02
2019-05-02T20:25:39.173Z,34.58
2019-05-02T20:28:06.375Z,36.38
2019-05-02T20:30:33.522Z,37.58
2019-05-02T20:33:02.113Z,40.88
2019-05-02T20:35:29.341Z,33.53
2019-05-02T20:37:56.341Z,34.53
2019-05-02T20:40:28.160Z,41.85
2019-05-02T20:42:55.180Z,38.23
2019-05-02T20:45:22.764Z,38.33
2019-05-02T20:47:49.768Z,34.58
2019-05-02T20:50:17.068Z,34.40
2019-05-02T20:52:43.954Z,32.53
2019-05-02T20:55:12.262Z,36.95
2019-05-02T20:57:39.494Z,34.90
2019-05-02T21:00:23.391Z,36.20
2019-05-02T21:02:49.597Z,36.13
2019-05-02T21:05:21.879Z,36.58
2019-05-02T21:07:52.377Z,34.60
2019-05-02T21:10:21.836Z,38.25
2019-05-02T21:12:48.837Z,34.78
2019-05-02T21:15:18.211Z,36.15
2019-05-02T21:17:45.389Z,34.13
2019-05-02T21:20:12.585Z,34.30
2019-05-02T21:22:39.615Z,36.58
2019-05-02T21:25:07.021Z,35.28
2019-05-02T21:27:33.964Z,33.25
2019-05-02T21:30:01.065Z,37.90
2019-05-02T21:32:27.853Z,32.48
2019-05-02T21:34:54.810Z,33.85
2019-05-02T21:37:22.675Z,32.58
2019-05-02T21:39:49.697Z,39.00
2019-05-02T21:42:16.580Z,38.58
2019-05-02T21:44:43.936Z,38.30
2019-05-02T21:47:10.698Z,37.80
2019-05-02T21:49:43.094Z,41.08
2019-05-02T21:52:22.711Z,39.13
2019-05-02T21:54:52.256Z,39.65
2019-05-02T21:57:20.291Z,45.75
2019-05-02T21:59:47.300Z,43.30
2019-05-02T22:02:15.703Z,42.48
2019-05-02T22:04:42.922Z,46.42
2019-05-02T22:07:12.052Z,41.05
2019-05-02T22:09:38.558Z,45.03
2019-05-02T22:12:06.082Z,43.60
2019-05-02T22:14:33.092Z,42.55
2019-05-02T22:17:02.151Z,40.38
2019-05-02T22:19:29.002Z,40.92
2019-05-02T22:21:55.811Z,39.78
2019-05-02T22:24:22.731Z,36.68
2019-05-02T22:26:49.834Z,38.05
2019-05-02T22:29:16.682Z,30.70
2019-05-02T22:31:44.038Z,32.08
2019-05-02T22:34:12.819Z,34.98
2019-05-02T22:36:40.894Z,35.75
2019-05-02T22:39:22.728Z,35.28
2019-05-02T22:41:49.658Z,30.72
2019-05-02T22:44:16.478Z,37.73
2019-05-02T22:46:44.485Z,33.83
2019-05-02T22:49:14.650Z,36.20
2019-05-02T22:51:42.874Z,34.50
2019-05-02T22:54:23.294Z,32.93
2019-05-02T22:56:38.830Z,36.58
2019-05-02T22:59:06.001Z,32.17
2019-05-02T23:01:33.045Z,36.48
2019-05-02T23:04:01.857Z,39.85
2019-05-02T23:06:29.282Z,35.25
2019-05-02T23:08:56.171Z,37.30
2019-05-02T23:11:24.523Z,38.35
2019-05-02T23:13:51.796Z,36.48
2019-05-02T23:16:18.749Z,32.83
2019-05-02T23:18:45.551Z,35.23
2019-05-02T23:21:12.900Z,34.88
2019-05-02T23:23:41.719Z,33.78
2019-05-02T23:26:12.993Z,37.83
2019-05-02T23:28:42.365Z,39.80
2019-05-02T23:31:11.446Z,39.90
2019-05-02T23:33:56.868Z,39.35
2019-05-02T23:36:26.083Z,36.95
2019-05-02T23:38:52.970Z,39.58
2019-05-02T23:41:22.005Z,41.30
2019-05-02T23:43:49.007Z,37.08
2019-05-02T23:46:16.340Z,35.80
2019-05-02T23:48:43.512Z,37.85
2019-05-02T23:51:12.137Z,35.88
2019-05-02T23:53:39.294Z,33.53
2019-05-02T23:56:06.583Z,32.38
2019-05-02T23:58:33.344Z,36.38
